sensor_id;sensor_type;location;lat;lon;timestamp;pressure;altitude;pressure_sealevel;temperature;humidity
57827;BME280;43656;57.746;11.780;2022-11-27T00:02:03;102507.72;;;9.93;100.00
57827;BME280;43656;57.746;11.780;2022-11-27T00:04:29;102507.56;;;9.94;100.00
57827;BME280;43656;57.746;11.780;2022-11-27T00:06:54;102510.09;;;9.96;100.00
57827;BME280;43656;57.746;11.780;2022-11-27T00:09:20;102485.44;;;9.82;100.00
57827;BME280;43656;57.746;11.780;2022-11-27T00:11:45;102521.03;;;9.94;100.00
57827;BME280;43656;57.746;11.780;2022-11-27T00:14:13;102515.94;;;9.91;100.00
57827;BME280;43656;57.746;11.780;2022-11-27T00:16:38;102487.75;;;9.77;100.00
57827;BME280;43656;57.746;11.780;2022-11-27T00:19:04;102515.66;;;9.94;100.00
57827;BME280;43656;57.746;11.780;2022-11-27T00:21:32;102518.03;;;9.97;100.00
57827;BME280;43656;57.746;11.780;2022-11-27T00:24:00;102520.84;;;9.96;100.00
57827;BME280;43656;57.746;11.780;2022-11-27T00:26:27;102525.38;;;9.95;100.00
57827;BME280;43656;57.746;11.780;2022-11-27T00:28:53;102523.84;;;9.93;100.00
57827;BME280;43656;57.746;11.780;2022-11-27T00:31:27;102524.56;;;9.95;100.00
57827;BME280;43656;57.746;11.780;2022-11-27T00:33:54;102530.06;;;9.93;100.00
57827;BME280;43656;57.746;11.780;2022-11-27T00:36:20;102519.31;;;9.93;100.00
57827;BME280;43656;57.746;11.780;2022-11-27T00:38:46;102499.19;;;9.79;100.00
57827;BME280;43656;57.746;11.780;2022-11-27T00:41:18;102521.31;;;9.91;100.00
57827;BME280;43656;57.746;11.780;2022-11-27T00:43:44;102519.47;;;9.92;100.00
57827;BME280;43656;57.746;11.780;2022-11-27T00:46:20;102509.56;;;9.92;100.00
57827;BME280;43656;57.746;11.780;2022-11-27T00:48:45;102499.88;;;9.81;100.00
57827;BME280;43656;57.746;11.780;2022-11-27T00:51:15;102521.31;;;9.91;100.00
57827;BME280;43656;57.746;11.780;2022-11-27T00:53:41;102520.31;;;9.92;100.00
57827;BME280;43656;57.746;11.780;2022-11-27T00:56:08;102508.00;;;9.89;100.00
57827;BME280;43656;57.746;11.780;2022-11-27T00:58:35;102512.25;;;9.92;100.00
57827;BME280;43656;57.746;11.780;2022-11-27T01:01:03;102504.66;;;9.87;100.00
57827;BME280;43656;57.746;11.780;2022-11-27T01:03:29;102500.97;;;9.88;100.00
57827;BME280;43656;57.746;11.780;2022-11-27T01:05:55;102502.94;;;9.86;100.00
57827;BME280;43656;57.746;11.780;2022-11-27T01:08:21;102516.47;;;9.95;100.00
57827;BME280;43656;57.746;11.780;2022-11-27T01:10:57;102503.19;;;9.93;100.00
57827;BME280;43656;57.746;11.780;2022-11-27T01:13:31;102510.41;;;9.93;100.00
57827;BME280;43656;57.746;11.780;2022-11-27T01:16:06;102495.34;;;9.82;100.00
57827;BME280;43656;57.746;11.780;2022-11-27T01:18:33;102523.53;;;9.96;100.00
57827;BME280;43656;57.746;11.780;2022-11-27T01:20:59;102520.47;;;9.91;100.00
57827;BME280;43656;57.746;11.780;2022-11-27T01:23:25;102481.97;;;9.72;100.00
57827;BME280;43656;57.746;11.780;2022-11-27T01:25:51;102477.44;;;9.73;100.00
57827;BME280;43656;57.746;11.780;2022-11-27T01:28:18;102509.88;;;9.89;100.00
57827;BME280;43656;57.746;11.780;2022-11-27T01:30:44;102500.97;;;9.88;100.00
57827;BME280;43656;57.746;11.780;2022-11-27T01:33:09;102501.78;;;9.89;100.00
57827;BME280;43656;57.746;11.780;2022-11-27T01:35:34;102495.75;;;9.87;100.00
57827;BME280;43656;57.746;11.780;2022-11-27T01:38:00;102493.59;;;9.91;100.00
57827;BME280;43656;57.746;11.780;2022-11-27T01:40:25;102486.50;;;9.89;100.00
57827;BME280;43656;57.746;11.780;2022-11-27T01:42:51;102478.75;;;9.86;100.00
57827;BME280;43656;57.746;11.780;2022-11-27T01:45:18;102483.97;;;9.88;100.00
57827;BME280;43656;57.746;11.780;2022-11-27T01:47:54;102475.75;;;9.89;100.00
57827;BME280;43656;57.746;11.780;2022-11-27T01:50:33;102472.31;;;9.97;100.00
57827;BME280;43656;57.746;11.780;2022-11-27T01:53:04;102474.31;;;9.95;100.00
57827;BME280;43656;57.746;11.780;2022-11-27T01:55:34;102465.22;;;9.96;100.00
57827;BME280;43656;57.746;11.780;2022-11-27T02:00:31;102451.56;;;9.89;100.00
57827;BME280;43656;57.746;11.780;2022-11-27T02:02:56;102445.94;;;9.83;100.00
57827;BME280;43656;57.746;11.780;2022-11-27T02:05:24;102438.75;;;9.83;100.00
57827;BME280;43656;57.746;11.780;2022-11-27T02:07:51;102431.00;;;9.80;100.00
57827;BME280;43656;57.746;11.780;2022-11-27T02:10:17;102422.94;;;9.80;100.00
57827;BME280;43656;57.746;11.780;2022-11-27T02:12:59;102417.38;;;9.82;100.00
57827;BME280;43656;57.746;11.780;2022-11-27T02:21:15;102391.94;;;9.76;100.00
57827;BME280;43656;57.746;11.780;2022-11-27T02:29:20;102401.81;;;9.68;100.00
57827;BME280;43656;57.746;11.780;2022-11-27T02:36:53;102370.69;;;9.65;100.00
57827;BME280;43656;57.746;11.780;2022-11-27T02:39:27;102376.59;;;9.69;100.00
57827;BME280;43656;57.746;11.780;2022-11-27T02:42:07;102375.53;;;9.61;100.00
57827;BME280;43656;57.746;11.780;2022-11-27T02:44:37;102368.94;;;9.56;100.00
57827;BME280;43656;57.746;11.780;2022-11-27T02:47:05;102387.44;;;9.59;100.00
57827;BME280;43656;57.746;11.780;2022-11-27T02:49:32;102387.75;;;9.56;100.00
57827;BME280;43656;57.746;11.780;2022-11-27T02:52:00;102396.28;;;9.51;100.00
57827;BME280;43656;57.746;11.780;2022-11-27T02:54:29;102397.81;;;9.54;100.00
57827;BME280;43656;57.746;11.780;2022-11-27T02:57:11;102384.69;;;9.51;100.00
57827;BME280;43656;57.746;11.780;2022-11-27T02:59:40;102377.91;;;9.47;100.00
57827;BME280;43656;57.746;11.780;2022-11-27T03:02:13;102400.16;;;9.57;100.00
57827;BME280;43656;57.746;11.780;2022-11-27T03:04:45;102377.38;;;9.43;100.00
57827;BME280;43656;57.746;11.780;2022-11-27T03:07:20;102401.88;;;9.58;100.00
57827;BME280;43656;57.746;11.780;2022-11-27T03:09:48;102395.03;;;9.46;100.00
57827;BME280;43656;57.746;11.780;2022-11-27T03:12:16;102419.69;;;9.59;100.00
57827;BME280;43656;57.746;11.780;2022-11-27T03:14:42;102422.78;;;9.64;100.00
57827;BME280;43656;57.746;11.780;2022-11-27T03:20:00;102431.38;;;9.68;100.00
57827;BME280;43656;57.746;11.780;2022-11-27T03:22:27;102433.22;;;9.67;100.00
57827;BME280;43656;57.746;11.780;2022-11-27T03:24:56;102426.59;;;9.61;100.00
57827;BME280;43656;57.746;11.780;2022-11-27T03:27:31;102397.41;;;9.49;100.00
57827;BME280;43656;57.746;11.780;2022-11-27T03:30:04;102426.97;;;9.67;100.00
57827;BME280;43656;57.746;11.780;2022-11-27T03:32:31;102422.47;;;9.67;100.00
57827;BME280;43656;57.746;11.780;2022-11-27T03:34:57;102403.88;;;9.56;100.00
57827;BME280;43656;57.746;11.780;2022-11-27T03:37:23;102408.78;;;9.60;100.00
57827;BME280;43656;57.746;11.780;2022-11-27T03:39:49;102425.28;;;9.65;100.00
57827;BME280;43656;57.746;11.780;2022-11-27T03:42:30;102424.16;;;9.68;100.00
57827;BME280;43656;57.746;11.780;2022-11-27T03:51:16;102419.91;;;9.65;100.00
57827;BME280;43656;57.746;11.780;2022-11-27T03:54:01;102425.81;;;9.69;100.00
57827;BME280;43656;57.746;11.780;2022-11-27T03:59:08;102379.75;;;9.46;100.00
57827;BME280;43656;57.746;11.780;2022-11-27T04:01:35;102411.84;;;9.65;100.00
57827;BME280;43656;57.746;11.780;2022-11-27T04:04:01;102396.81;;;9.55;100.00
57827;BME280;43656;57.746;11.780;2022-11-27T04:06:26;102397.19;;;9.60;100.00
57827;BME280;43656;57.746;11.780;2022-11-27T04:08:51;102404.09;;;9.62;100.00
57827;BME280;43656;57.746;11.780;2022-11-27T04:11:17;102398.28;;;9.67;100.00
57827;BME280;43656;57.746;11.780;2022-11-27T04:13:43;102393.03;;;9.65;100.00
57827;BME280;43656;57.746;11.780;2022-11-27T04:16:08;102391.13;;;9.58;100.00
57827;BME280;43656;57.746;11.780;2022-11-27T04:18:33;102394.50;;;9.60;100.00
57827;BME280;43656;57.746;11.780;2022-11-27T04:20:59;102394.19;;;9.63;100.00
57827;BME280;43656;57.746;11.780;2022-11-27T04:23:24;102402.66;;;9.68;100.00
57827;BME280;43656;57.746;11.780;2022-11-27T04:25:50;102391.50;;;9.63;100.00
57827;BME280;43656;57.746;11.780;2022-11-27T04:28:15;102408.84;;;9.69;100.00
57827;BME280;43656;57.746;11.780;2022-11-27T04:30:44;102393.34;;;9.62;100.00
57827;BME280;43656;57.746;11.780;2022-11-27T04:33:14;102405.09;;;9.61;100.00
57827;BME280;43656;57.746;11.780;2022-11-27T04:35:39;102405.94;;;9.62;100.00
57827;BME280;43656;57.746;11.780;2022-11-27T04:38:05;102412.03;;;9.64;100.00
57827;BME280;43656;57.746;11.780;2022-11-27T04:40:30;102403.13;;;9.63;100.00
57827;BME280;43656;57.746;11.780;2022-11-27T04:42:56;102392.50;;;9.62;100.00
57827;BME280;43656;57.746;11.780;2022-11-27T04:45:21;102387.13;;;9.62;100.00
57827;BME280;43656;57.746;11.780;2022-11-27T04:47:46;102385.16;;;9.64;100.00
57827;BME280;43656;57.746;11.780;2022-11-27T04:50:12;102387.00;;;9.63;100.00
57827;BME280;43656;57.746;11.780;2022-11-27T04:52:37;102352.22;;;9.44;100.00
57827;BME280;43656;57.746;11.780;2022-11-27T04:55:03;102379.06;;;9.62;100.00
57827;BME280;43656;57.746;11.780;2022-11-27T04:57:28;102375.38;;;9.63;100.00
57827;BME280;43656;57.746;11.780;2022-11-27T04:59:53;102370.16;;;9.61;100.00
57827;BME280;43656;57.746;11.780;2022-11-27T05:02:19;102371.72;;;9.64;100.00
57827;BME280;43656;57.746;11.780;2022-11-27T05:04:44;102376.06;;;9.65;100.00
57827;BME280;43656;57.746;11.780;2022-11-27T05:07:10;102355.78;;;9.53;100.00
57827;BME280;43656;57.746;11.780;2022-11-27T05:09:35;102368.63;;;9.59;100.00
57827;BME280;43656;57.746;11.780;2022-11-27T05:12:01;102358.88;;;9.58;100.00
57827;BME280;43656;57.746;11.780;2022-11-27T05:14:26;102362.09;;;9.61;100.00
57827;BME280;43656;57.746;11.780;2022-11-27T05:16:56;102364.63;;;9.63;100.00
57827;BME280;43656;57.746;11.780;2022-11-27T05:19:23;102370.00;;;9.63;100.00
57827;BME280;43656;57.746;11.780;2022-11-27T05:21:50;102370.88;;;9.63;100.00
57827;BME280;43656;57.746;11.780;2022-11-27T05:24:17;102370.00;;;9.63;100.00
57827;BME280;43656;57.746;11.780;2022-11-27T05:26:44;102362.63;;;9.65;100.00
57827;BME280;43656;57.746;11.780;2022-11-27T05:29:10;102364.31;;;9.66;100.00
57827;BME280;43656;57.746;11.780;2022-11-27T05:31:39;102358.41;;;9.62;100.00
57827;BME280;43656;57.746;11.780;2022-11-27T05:34:05;102366.63;;;9.61;100.00
57827;BME280;43656;57.746;11.780;2022-11-27T05:36:32;102360.88;;;9.56;100.00
57827;BME280;43656;57.746;11.780;2022-11-27T05:38:59;102355.19;;;9.59;100.00
57827;BME280;43656;57.746;11.780;2022-11-27T05:41:24;102354.34;;;9.58;100.00
57827;BME280;43656;57.746;11.780;2022-11-27T05:43:50;102353.41;;;9.50;100.00
57827;BME280;43656;57.746;11.780;2022-11-27T05:46:18;102359.19;;;9.55;100.00
57827;BME280;43656;57.746;11.780;2022-11-27T05:48:44;102323.56;;;9.35;100.00
57827;BME280;43656;57.746;11.780;2022-11-27T05:51:10;102347.19;;;9.49;100.00
57827;BME280;43656;57.746;11.780;2022-11-27T05:53:35;102313.91;;;9.24;100.00
57827;BME280;43656;57.746;11.780;2022-11-27T05:56:06;102326.63;;;9.40;100.00
57827;BME280;43656;57.746;11.780;2022-11-27T05:58:32;102327.03;;;9.45;100.00
57827;BME280;43656;57.746;11.780;2022-11-27T06:00:58;102334.31;;;9.53;100.00
57827;BME280;43656;57.746;11.780;2022-11-27T06:03:23;102331.91;;;9.50;100.00
57827;BME280;43656;57.746;11.780;2022-11-27T06:05:49;102340.47;;;9.45;100.00
57827;BME280;43656;57.746;11.780;2022-11-27T06:08:14;102317.50;;;9.33;100.00
57827;BME280;43656;57.746;11.780;2022-11-27T06:10:40;102341.69;;;9.51;100.00
57827;BME280;43656;57.746;11.780;2022-11-27T06:13:05;102343.38;;;9.52;100.00
57827;BME280;43656;57.746;11.780;2022-11-27T06:15:31;102350.13;;;9.56;100.00
57827;BME280;43656;57.746;11.780;2022-11-27T06:17:56;102329.53;;;9.47;100.00
57827;BME280;43656;57.746;11.780;2022-11-27T06:20:22;102321.31;;;9.30;100.00
57827;BME280;43656;57.746;11.780;2022-11-27T06:22:48;102330.72;;;9.44;100.00
57827;BME280;43656;57.746;11.780;2022-11-27T06:25:14;102347.28;;;9.57;100.00
57827;BME280;43656;57.746;11.780;2022-11-27T06:27:40;102332.94;;;9.49;100.00
57827;BME280;43656;57.746;11.780;2022-11-27T06:30:07;102347.81;;;9.61;100.00
57827;BME280;43656;57.746;11.780;2022-11-27T06:32:33;102348.97;;;9.58;100.00
57827;BME280;43656;57.746;11.780;2022-11-27T06:34:59;102337.00;;;9.53;100.00
57827;BME280;43656;57.746;11.780;2022-11-27T06:37:24;102355.03;;;9.60;100.00
57827;BME280;43656;57.746;11.780;2022-11-27T06:39:49;102351.13;;;9.55;100.00
57827;BME280;43656;57.746;11.780;2022-11-27T06:42:15;102345.56;;;9.56;100.00
57827;BME280;43656;57.746;11.780;2022-11-27T06:44:41;102346.06;;;9.52;100.00
57827;BME280;43656;57.746;11.780;2022-11-27T06:47:06;102355.78;;;9.53;100.00
57827;BME280;43656;57.746;11.780;2022-11-27T06:49:32;102298.63;;;9.25;100.00
57827;BME280;43656;57.746;11.780;2022-11-27T06:51:57;102333.19;;;9.37;100.00
57827;BME280;43656;57.746;11.780;2022-11-27T06:54:23;102344.69;;;9.48;100.00
57827;BME280;43656;57.746;11.780;2022-11-27T06:56:49;102344.22;;;9.52;100.00
57827;BME280;43656;57.746;11.780;2022-11-27T06:59:15;102342.38;;;9.53;100.00
57827;BME280;43656;57.746;11.780;2022-11-27T07:01:41;102309.00;;;9.37;100.00
57827;BME280;43656;57.746;11.780;2022-11-27T07:04:09;102313.34;;;9.38;100.00
57827;BME280;43656;57.746;11.780;2022-11-27T07:06:35;102340.16;;;9.48;100.00
57827;BME280;43656;57.746;11.780;2022-11-27T07:09:01;102342.00;;;9.48;100.00
57827;BME280;43656;57.746;11.780;2022-11-27T07:11:28;102334.69;;;9.40;100.00
57827;BME280;43656;57.746;11.780;2022-11-27T07:13:56;102338.78;;;9.44;100.00
57827;BME280;43656;57.746;11.780;2022-11-27T07:16:21;102330.50;;;9.37;100.00
57827;BME280;43656;57.746;11.780;2022-11-27T07:18:49;102335.63;;;9.49;100.00
57827;BME280;43656;57.746;11.780;2022-11-27T07:21:15;102321.72;;;9.35;100.00
57827;BME280;43656;57.746;11.780;2022-11-27T07:23:41;102348.34;;;9.47;100.00
57827;BME280;43656;57.746;11.780;2022-11-27T07:26:09;102332.78;;;9.32;100.00
57827;BME280;43656;57.746;11.780;2022-11-27T07:28:35;102311.34;;;9.23;100.00
57827;BME280;43656;57.746;11.780;2022-11-27T07:31:02;102343.03;;;9.37;100.00
57827;BME280;43656;57.746;11.780;2022-11-27T07:33:27;102351.97;;;9.37;100.00
57827;BME280;43656;57.746;11.780;2022-11-27T07:36:04;102354.81;;;9.36;100.00
57827;BME280;43656;57.746;11.780;2022-11-27T07:38:30;102350.81;;;9.40;100.00
57827;BME280;43656;57.746;11.780;2022-11-27T07:41:00;102359.03;;;9.38;100.00
57827;BME280;43656;57.746;11.780;2022-11-27T07:43:26;102364.72;;;9.35;100.00
57827;BME280;43656;57.746;11.780;2022-11-27T07:45:52;102347.41;;;9.20;100.00
57827;BME280;43656;57.746;11.780;2022-11-27T07:48:17;102368.41;;;9.34;100.00
57827;BME280;43656;57.746;11.780;2022-11-27T07:50:43;102368.41;;;9.34;100.00
57827;BME280;43656;57.746;11.780;2022-11-27T07:53:12;102374.22;;;9.30;100.00
57827;BME280;43656;57.746;11.780;2022-11-27T07:55:38;102372.38;;;9.30;100.00
57827;BME280;43656;57.746;11.780;2022-11-27T07:58:04;102343.75;;;9.21;100.00
57827;BME280;43656;57.746;11.780;2022-11-27T08:00:30;102356.88;;;9.24;100.00
57827;BME280;43656;57.746;11.780;2022-11-27T08:02:55;102336.69;;;9.20;100.00
57827;BME280;43656;57.746;11.780;2022-11-27T08:05:20;102345.59;;;9.21;100.00
57827;BME280;43656;57.746;11.780;2022-11-27T08:07:46;102346.28;;;9.05;100.00
57827;BME280;43656;57.746;11.780;2022-11-27T08:10:11;102352.66;;;9.22;100.00
57827;BME280;43656;57.746;11.780;2022-11-27T08:12:37;102349.25;;;9.20;100.00
57827;BME280;43656;57.746;11.780;2022-11-27T08:15:03;102364.53;;;9.19;100.00
57827;BME280;43656;57.746;11.780;2022-11-27T08:17:30;102364.63;;;9.27;100.00
57827;BME280;43656;57.746;11.780;2022-11-27T08:19:55;102358.94;;;9.30;100.00
57827;BME280;43656;57.746;11.780;2022-11-27T08:22:21;102351.44;;;9.34;100.00
57827;BME280;43656;57.746;11.780;2022-11-27T08:24:46;102357.25;;;9.29;100.00
57827;BME280;43656;57.746;11.780;2022-11-27T08:27:13;102348.66;;;9.26;100.00
57827;BME280;43656;57.746;11.780;2022-11-27T08:29:39;102350.03;;;9.12;100.00
57827;BME280;43656;57.746;11.780;2022-11-27T08:32:05;102347.34;;;9.30;100.00
57827;BME280;43656;57.746;11.780;2022-11-27T08:34:31;102321.56;;;9.19;100.00
57827;BME280;43656;57.746;11.780;2022-11-27T08:36:56;102340.22;;;9.38;100.00
57827;BME280;43656;57.746;11.780;2022-11-27T08:39:22;102345.38;;;9.32;100.00
57827;BME280;43656;57.746;11.780;2022-11-27T08:41:47;102340.78;;;9.24;100.00
57827;BME280;43656;57.746;11.780;2022-11-27T08:44:12;102336.59;;;9.30;100.00
57827;BME280;43656;57.746;11.780;2022-11-27T08:46:38;102331.47;;;9.36;100.00
57827;BME280;43656;57.746;11.780;2022-11-27T08:49:03;102329.94;;;9.16;100.00
57827;BME280;43656;57.746;11.780;2022-11-27T08:51:29;102320.78;;;9.09;100.00
57827;BME280;43656;57.746;11.780;2022-11-27T08:53:54;102312.91;;;9.25;100.00
57827;BME280;43656;57.746;11.780;2022-11-27T08:56:22;102313.03;;;9.24;100.00
57827;BME280;43656;57.746;11.780;2022-11-27T08:58:48;102308.53;;;9.24;100.00
57827;BME280;43656;57.746;11.780;2022-11-27T09:01:19;102312.28;;;9.31;100.00
57827;BME280;43656;57.746;11.780;2022-11-27T09:03:46;102315.81;;;9.14;100.00
57827;BME280;43656;57.746;11.780;2022-11-27T09:06:15;102271.69;;;8.99;100.00
57827;BME280;43656;57.746;11.780;2022-11-27T09:08:41;102327.94;;;9.36;100.00
57827;BME280;43656;57.746;11.780;2022-11-27T09:11:08;102325.16;;;9.46;100.00
57827;BME280;43656;57.746;11.780;2022-11-27T09:13:34;102327.56;;;9.49;100.00
57827;BME280;43656;57.746;11.780;2022-11-27T09:16:07;102324.03;;;9.48;100.00
57827;BME280;43656;57.746;11.780;2022-11-27T09:18:33;102300.47;;;9.42;100.00
57827;BME280;43656;57.746;11.780;2022-11-27T09:21:00;102313.50;;;9.55;100.00
57827;BME280;43656;57.746;11.780;2022-11-27T09:23:27;102302.22;;;9.51;100.00
57827;BME280;43656;57.746;11.780;2022-11-27T09:25:53;102297.59;;;9.44;100.00
57827;BME280;43656;57.746;11.780;2022-11-27T09:28:19;102297.53;;;9.53;100.00
57827;BME280;43656;57.746;11.780;2022-11-27T09:30:44;102275.88;;;9.37;100.00
57827;BME280;43656;57.746;11.780;2022-11-27T09:33:10;102301.81;;;9.46;100.00
57827;BME280;43656;57.746;11.780;2022-11-27T09:35:36;102299.75;;;9.40;100.00
57827;BME280;43656;57.746;11.780;2022-11-27T09:38:02;102297.28;;;9.47;100.00
57827;BME280;43656;57.746;11.780;2022-11-27T09:40:28;102299.75;;;9.58;100.00
57827;BME280;43656;57.746;11.780;2022-11-27T09:42:59;102294.38;;;9.58;100.00
57827;BME280;43656;57.746;11.780;2022-11-27T09:45:28;102302.13;;;9.43;100.00
57827;BME280;43656;57.746;11.780;2022-11-27T09:47:59;102283.94;;;9.55;100.00
57827;BME280;43656;57.746;11.780;2022-11-27T09:50:30;102258.53;;;9.49;100.00
57827;BME280;43656;57.746;11.780;2022-11-27T09:53:15;102249.41;;;9.42;100.00
57827;BME280;43656;57.746;11.780;2022-11-27T09:55:57;102281.19;;;9.47;100.00
57827;BME280;43656;57.746;11.780;2022-11-27T09:58:37;102274.03;;;9.55;100.00
57827;BME280;43656;57.746;11.780;2022-11-27T10:01:12;102274.78;;;9.65;100.00
57827;BME280;43656;57.746;11.780;2022-11-27T10:03:40;102268.19;;;9.60;100.00
57827;BME280;43656;57.746;11.780;2022-11-27T10:17:09;102232.75;;;9.38;100.00
57827;BME280;43656;57.746;11.780;2022-11-27T10:24:58;102219.44;;;9.55;100.00
57827;BME280;43656;57.746;11.780;2022-11-27T10:27:37;102247.28;;;9.72;100.00
57827;BME280;43656;57.746;11.780;2022-11-27T10:30:16;102231.44;;;9.60;100.00
57827;BME280;43656;57.746;11.780;2022-11-27T10:32:43;102227.56;;;9.63;100.00
57827;BME280;43656;57.746;11.780;2022-11-27T10:35:16;102247.09;;;9.73;100.00
57827;BME280;43656;57.746;11.780;2022-11-27T10:37:47;102243.88;;;9.70;100.00
57827;BME280;43656;57.746;11.780;2022-11-27T10:40:21;102240.31;;;9.61;100.00
57827;BME280;43656;57.746;11.780;2022-11-27T10:43:10;102243.44;;;9.74;100.00
57827;BME280;43656;57.746;11.780;2022-11-27T10:46:00;102241.38;;;9.68;100.00
57827;BME280;43656;57.746;11.780;2022-11-27T10:48:26;102217.44;;;9.57;100.00
57827;BME280;43656;57.746;11.780;2022-11-27T10:50:54;102221.03;;;9.65;100.00
57827;BME280;43656;57.746;11.780;2022-11-27T10:55:59;102239.59;;;9.77;100.00
57827;BME280;43656;57.746;11.780;2022-11-27T11:01:16;102231.75;;;9.83;100.00
57827;BME280;43656;57.746;11.780;2022-11-27T11:03:43;102202.81;;;9.51;100.00
57827;BME280;43656;57.746;11.780;2022-11-27T11:06:22;102238.41;;;9.79;100.00
57827;BME280;43656;57.746;11.780;2022-11-27T11:09:23;102230.72;;;9.84;100.00
57827;BME280;43656;57.746;11.780;2022-11-27T11:11:49;102227.19;;;9.84;100.00
57827;BME280;43656;57.746;11.780;2022-11-27T11:14:18;102218.50;;;9.90;100.00
57827;BME280;43656;57.746;11.780;2022-11-27T11:16:44;102204.38;;;9.96;100.00
57827;BME280;43656;57.746;11.780;2022-11-27T11:19:21;102212.13;;;9.99;100.00
57827;BME280;43656;57.746;11.780;2022-11-27T11:21:46;102206.09;;;9.97;100.00
57827;BME280;43656;57.746;11.780;2022-11-27T11:24:20;102210.66;;;10.05;100.00
57827;BME280;43656;57.746;11.780;2022-11-27T11:26:48;102202.59;;;10.05;100.00
57827;BME280;43656;57.746;11.780;2022-11-27T11:29:40;102205.09;;;10.06;100.00
57827;BME280;43656;57.746;11.780;2022-11-27T11:34:45;102197.72;;;10.00;100.00
57827;BME280;43656;57.746;11.780;2022-11-27T11:37:24;102189.13;;;10.05;100.00
57827;BME280;43656;57.746;11.780;2022-11-27T11:39:59;102189.31;;;10.03;100.00
57827;BME280;43656;57.746;11.780;2022-11-27T11:42:28;102176.00;;;9.94;100.00
57827;BME280;43656;57.746;11.780;2022-11-27T11:45:05;102182.22;;;10.02;100.00
57827;BME280;43656;57.746;11.780;2022-11-27T11:47:33;102187.47;;;10.04;100.00
57827;BME280;43656;57.746;11.780;2022-11-27T11:49:58;102172.63;;;9.92;100.00
57827;BME280;43656;57.746;11.780;2022-11-27T11:52:40;102186.44;;;9.97;100.00
57827;BME280;43656;57.746;11.780;2022-11-27T11:55:24;102175.69;;;9.97;100.00
57827;BME280;43656;57.746;11.780;2022-11-27T11:58:05;102140.59;;;9.72;100.00
57827;BME280;43656;57.746;11.780;2022-11-27T12:00:48;102172.28;;;9.95;100.00
57827;BME280;43656;57.746;11.780;2022-11-27T12:08:45;102169.81;;;10.01;100.00
57827;BME280;43656;57.746;11.780;2022-11-27T12:11:26;102172.50;;;10.01;100.00
57827;BME280;43656;57.746;11.780;2022-11-27T12:30:22;102167.44;;;9.98;100.00
57827;BME280;43656;57.746;11.780;2022-11-27T12:35:41;102142.00;;;9.84;100.00
57827;BME280;43656;57.746;11.780;2022-11-27T12:38:36;102157.72;;;10.05;100.00
57827;BME280;43656;57.746;11.780;2022-11-27T12:43:57;102164.94;;;10.05;100.00
57827;BME280;43656;57.746;11.780;2022-11-27T12:51:48;102120.63;;;9.75;100.00
57827;BME280;43656;57.746;11.780;2022-11-27T12:54:20;102150.13;;;10.01;100.00
57827;BME280;43656;57.746;11.780;2022-11-27T12:56:51;102150.81;;;10.03;100.00
57827;BME280;43656;57.746;11.780;2022-11-27T13:02:23;102138.88;;;9.97;100.00
57827;BME280;43656;57.746;11.780;2022-11-27T13:05:09;102133.81;;;9.94;100.00
57827;BME280;43656;57.746;11.780;2022-11-27T13:10:38;102138.19;;;9.95;100.00
57827;BME280;43656;57.746;11.780;2022-11-27T13:13:13;102138.03;;;9.97;100.00
57827;BME280;43656;57.746;11.780;2022-11-27T13:18:20;102129.59;;;9.92;100.00
57827;BME280;43656;57.746;11.780;2022-11-27T13:20:47;102131.59;;;9.89;100.00
57827;BME280;43656;57.746;11.780;2022-11-27T13:23:14;102124.59;;;9.97;100.00
57827;BME280;43656;57.746;11.780;2022-11-27T13:25:44;102128.59;;;9.93;100.00
57827;BME280;43656;57.746;11.780;2022-11-27T13:28:41;102114.09;;;9.85;100.00
57827;BME280;43656;57.746;11.780;2022-11-27T13:31:06;102114.81;;;9.87;100.00
57827;BME280;43656;57.746;11.780;2022-11-27T13:33:49;102127.28;;;9.97;100.00
57827;BME280;43656;57.746;11.780;2022-11-27T13:36:40;102125.88;;;9.93;100.00
57827;BME280;43656;57.746;11.780;2022-11-27T13:39:24;102112.78;;;9.89;100.00
57827;BME280;43656;57.746;11.780;2022-11-27T13:44:31;102082.16;;;9.74;100.00
57827;BME280;43656;57.746;11.780;2022-11-27T13:47:05;102103.88;;;9.89;100.00
57827;BME280;43656;57.746;11.780;2022-11-27T13:49:34;102115.50;;;9.98;100.00
57827;BME280;43656;57.746;11.780;2022-11-27T13:52:07;102116.84;;;9.94;100.00
57827;BME280;43656;57.746;11.780;2022-11-27T13:54:34;102117.16;;;9.91;100.00
57827;BME280;43656;57.746;11.780;2022-11-27T13:57:12;102110.25;;;9.88;100.00
57827;BME280;43656;57.746;11.780;2022-11-27T13:59:38;102121.91;;;9.97;100.00
57827;BME280;43656;57.746;11.780;2022-11-27T14:02:24;102111.97;;;9.97;100.00
57827;BME280;43656;57.746;11.780;2022-11-27T14:04:51;102112.81;;;9.98;100.00
57827;BME280;43656;57.746;11.780;2022-11-27T14:07:17;102096.69;;;9.98;100.00
57827;BME280;43656;57.746;11.780;2022-11-27T14:09:53;102103.41;;;10.02;100.00
57827;BME280;43656;57.746;11.780;2022-11-27T14:12:26;102080.88;;;9.95;100.00
57827;BME280;43656;57.746;11.780;2022-11-27T14:17:41;102092.66;;;10.02;100.00
57827;BME280;43656;57.746;11.780;2022-11-27T14:33:16;102081.19;;;9.92;100.00
57827;BME280;43656;57.746;11.780;2022-11-27T14:35:54;102081.72;;;9.95;100.00
57827;BME280;43656;57.746;11.780;2022-11-27T14:38:20;102056.81;;;9.93;100.00
57827;BME280;43656;57.746;11.780;2022-11-27T14:40:49;102072.66;;;10.04;100.00
57827;BME280;43656;57.746;11.780;2022-11-27T14:43:19;102050.94;;;9.89;100.00
57827;BME280;43656;57.746;11.780;2022-11-27T14:45:50;102058.16;;;9.89;100.00